sensor_id;sensor_type;location;lat;lon;timestamp;P1;durP1;ratioP1;P2;durP2;ratioP2
71091;SDS011;58751;50.708;7.134;2023-06-24T00:00:17;7.00;;;6.40;;
71091;SDS011;58751;50.708;7.134;2023-06-24T00:02:42;8.20;;;7.53;;
71091;SDS011;58751;50.708;7.134;2023-06-24T00:05:07;7.43;;;6.70;;
71091;SDS011;58751;50.708;7.134;2023-06-24T00:07:33;7.10;;;6.50;;
71091;SDS011;58751;50.708;7.134;2023-06-24T00:09:58;10.40;;;7.97;;
71091;SDS011;58751;50.708;7.134;2023-06-24T00:12:23;7.80;;;7.10;;
71091;SDS011;58751;50.708;7.134;2023-06-24T00:14:50;8.03;;;7.33;;
71091;SDS011;58751;50.708;7.134;2023-06-24T00:17:15;9.10;;;6.60;;
71091;SDS011;58751;50.708;7.134;2023-06-24T00:19:40;8.13;;;7.43;;
71091;SDS011;58751;50.708;7.134;2023-06-24T00:22:05;8.23;;;7.50;;
71091;SDS011;58751;50.708;7.134;2023-06-24T00:24:31;8.73;;;8.00;;
71091;SDS011;58751;50.708;7.134;2023-06-24T00:26:56;7.63;;;7.03;;
71091;SDS011;58751;50.708;7.134;2023-06-24T00:29:21;8.97;;;7.53;;
71091;SDS011;58751;50.708;7.134;2023-06-24T00:31:48;7.90;;;7.17;;
71091;SDS011;58751;50.708;7.134;2023-06-24T00:34:13;8.43;;;7.50;;
71091;SDS011;58751;50.708;7.134;2023-06-24T00:36:38;8.23;;;7.23;;
71091;SDS011;58751;50.708;7.134;2023-06-24T00:39:04;8.27;;;6.90;;
71091;SDS011;58751;50.708;7.134;2023-06-24T00:41:29;8.60;;;7.90;;
71091;SDS011;58751;50.708;7.134;2023-06-24T00:43:54;7.37;;;6.87;;
71091;SDS011;58751;50.708;7.134;2023-06-24T00:46:20;7.83;;;7.13;;
71091;SDS011;58751;50.708;7.134;2023-06-24T00:48:47;8.40;;;7.60;;
71091;SDS011;58751;50.708;7.134;2023-06-24T00:51:12;8.40;;;7.80;;
71091;SDS011;58751;50.708;7.134;2023-06-24T00:53:37;8.87;;;8.07;;
71091;SDS011;58751;50.708;7.134;2023-06-24T00:56:02;8.63;;;7.83;;
71091;SDS011;58751;50.708;7.134;2023-06-24T00:58:28;9.07;;;8.30;;
71091;SDS011;58751;50.708;7.134;2023-06-24T01:00:54;8.50;;;7.80;;
71091;SDS011;58751;50.708;7.134;2023-06-24T01:03:19;8.30;;;7.70;;
71091;SDS011;58751;50.708;7.134;2023-06-24T01:05:45;8.30;;;7.50;;
71091;SDS011;58751;50.708;7.134;2023-06-24T01:08:11;7.97;;;7.37;;
71091;SDS011;58751;50.708;7.134;2023-06-24T01:10:36;8.07;;;7.23;;
71091;SDS011;58751;50.708;7.134;2023-06-24T01:13:01;8.40;;;7.60;;
71091;SDS011;58751;50.708;7.134;2023-06-24T01:15:26;7.33;;;6.73;;
71091;SDS011;58751;50.708;7.134;2023-06-24T01:17:54;8.90;;;8.00;;
71091;SDS011;58751;50.708;7.134;2023-06-24T01:20:20;7.73;;;7.17;;
71091;SDS011;58751;50.708;7.134;2023-06-24T01:25:35;9.27;;;8.53;;
71091;SDS011;58751;50.708;7.134;2023-06-24T01:28:14;9.53;;;8.70;;
71091;SDS011;58751;50.708;7.134;2023-06-24T01:30:49;9.43;;;8.63;;
71091;SDS011;58751;50.708;7.134;2023-06-24T01:33:19;8.47;;;7.67;;
71091;SDS011;58751;50.708;7.134;2023-06-24T01:35:45;9.20;;;8.40;;
71091;SDS011;58751;50.708;7.134;2023-06-24T01:38:14;9.37;;;8.47;;
71091;SDS011;58751;50.708;7.134;2023-06-24T01:40:42;8.90;;;8.20;;
71091;SDS011;58751;50.708;7.134;2023-06-24T01:43:09;12.70;;;8.27;;
71091;SDS011;58751;50.708;7.134;2023-06-24T01:45:35;9.10;;;7.67;;
71091;SDS011;58751;50.708;7.134;2023-06-24T01:48:02;8.23;;;7.30;;
71091;SDS011;58751;50.708;7.134;2023-06-24T01:50:32;9.10;;;8.07;;
71091;SDS011;58751;50.708;7.134;2023-06-24T01:52:58;9.00;;;8.27;;
71091;SDS011;58751;50.708;7.134;2023-06-24T01:55:24;7.80;;;7.10;;
71091;SDS011;58751;50.708;7.134;2023-06-24T01:57:49;8.77;;;8.07;;
71091;SDS011;58751;50.708;7.134;2023-06-24T02:00:15;9.23;;;8.27;;
71091;SDS011;58751;50.708;7.134;2023-06-24T02:02:41;8.50;;;7.90;;
71091;SDS011;58751;50.708;7.134;2023-06-24T02:05:07;8.53;;;7.83;;
71091;SDS011;58751;50.708;7.134;2023-06-24T02:07:35;8.53;;;7.90;;
71091;SDS011;58751;50.708;7.134;2023-06-24T02:10:01;8.60;;;7.80;;
71091;SDS011;58751;50.708;7.134;2023-06-24T02:12:26;9.57;;;8.17;;
71091;SDS011;58751;50.708;7.134;2023-06-24T02:14:52;8.80;;;8.00;;
71091;SDS011;58751;50.708;7.134;2023-06-24T02:17:19;8.47;;;7.67;;
71091;SDS011;58751;50.708;7.134;2023-06-24T02:19:45;9.33;;;8.47;;
71091;SDS011;58751;50.708;7.134;2023-06-24T02:22:11;8.80;;;7.97;;
71091;SDS011;58751;50.708;7.134;2023-06-24T02:24:38;8.13;;;7.43;;
71091;SDS011;58751;50.708;7.134;2023-06-24T02:27:05;8.60;;;7.90;;
71091;SDS011;58751;50.708;7.134;2023-06-24T02:29:31;9.47;;;8.50;;
71091;SDS011;58751;50.708;7.134;2023-06-24T02:31:57;9.07;;;8.17;;
71091;SDS011;58751;50.708;7.134;2023-06-24T02:34:22;8.87;;;8.10;;
71091;SDS011;58751;50.708;7.134;2023-06-24T02:36:48;8.67;;;7.77;;
71091;SDS011;58751;50.708;7.134;2023-06-24T02:39:13;10.37;;;9.37;;
71091;SDS011;58751;50.708;7.134;2023-06-24T02:41:39;8.90;;;8.00;;
71091;SDS011;58751;50.708;7.134;2023-06-24T02:44:05;9.77;;;8.87;;
71091;SDS011;58751;50.708;7.134;2023-06-24T02:46:30;8.50;;;7.90;;
71091;SDS011;58751;50.708;7.134;2023-06-24T02:48:56;9.20;;;8.40;;
71091;SDS011;58751;50.708;7.134;2023-06-24T02:51:22;9.10;;;8.10;;
71091;SDS011;58751;50.708;7.134;2023-06-24T02:53:47;7.80;;;7.23;;
71091;SDS011;58751;50.708;7.134;2023-06-24T02:56:12;9.03;;;8.37;;
71091;SDS011;58751;50.708;7.134;2023-06-24T02:58:39;12.20;;;8.70;;
71091;SDS011;58751;50.708;7.134;2023-06-24T03:01:04;8.97;;;8.27;;
71091;SDS011;58751;50.708;7.134;2023-06-24T03:03:30;14.23;;;8.17;;
71091;SDS011;58751;50.708;7.134;2023-06-24T03:05:56;9.07;;;8.37;;
71091;SDS011;58751;50.708;7.134;2023-06-24T03:08:21;10.50;;;9.57;;
71091;SDS011;58751;50.708;7.134;2023-06-24T03:10:46;8.43;;;7.73;;
71091;SDS011;58751;50.708;7.134;2023-06-24T03:13:12;10.03;;;9.13;;
71091;SDS011;58751;50.708;7.134;2023-06-24T03:15:38;10.40;;;8.77;;
71091;SDS011;58751;50.708;7.134;2023-06-24T03:18:03;8.97;;;8.07;;
71091;SDS011;58751;50.708;7.134;2023-06-24T03:20:29;9.43;;;8.60;;
71091;SDS011;58751;50.708;7.134;2023-06-24T03:22:54;10.27;;;9.33;;
71091;SDS011;58751;50.708;7.134;2023-06-24T03:25:19;9.80;;;8.90;;
71091;SDS011;58751;50.708;7.134;2023-06-24T03:27:44;9.23;;;8.53;;
71091;SDS011;58751;50.708;7.134;2023-06-24T03:30:11;10.40;;;8.90;;
71091;SDS011;58751;50.708;7.134;2023-06-24T03:32:37;9.33;;;8.53;;
71091;SDS011;58751;50.708;7.134;2023-06-24T03:35:03;9.13;;;8.43;;
71091;SDS011;58751;50.708;7.134;2023-06-24T03:37:28;9.63;;;8.83;;
71091;SDS011;58751;50.708;7.134;2023-06-24T03:39:53;9.90;;;9.00;;
71091;SDS011;58751;50.708;7.134;2023-06-24T03:42:18;10.00;;;9.10;;
71091;SDS011;58751;50.708;7.134;2023-06-24T03:44:44;11.33;;;8.77;;
71091;SDS011;58751;50.708;7.134;2023-06-24T03:47:09;10.83;;;9.83;;
71091;SDS011;58751;50.708;7.134;2023-06-24T03:49:35;9.73;;;8.70;;
71091;SDS011;58751;50.708;7.134;2023-06-24T03:52:01;10.57;;;9.67;;
71091;SDS011;58751;50.708;7.134;2023-06-24T03:54:26;11.73;;;10.63;;
71091;SDS011;58751;50.708;7.134;2023-06-24T03:56:51;12.30;;;10.40;;
71091;SDS011;58751;50.708;7.134;2023-06-24T03:59:16;12.17;;;11.17;;
71091;SDS011;58751;50.708;7.134;2023-06-24T04:01:41;11.03;;;10.13;;
71091;SDS011;58751;50.708;7.134;2023-06-24T04:04:07;12.47;;;11.30;;
71091;SDS011;58751;50.708;7.134;2023-06-24T04:06:33;11.50;;;10.50;;
71091;SDS011;58751;50.708;7.134;2023-06-24T04:08:58;11.30;;;10.20;;
71091;SDS011;58751;50.708;7.134;2023-06-24T04:11:24;10.93;;;9.93;;
71091;SDS011;58751;50.708;7.134;2023-06-24T04:13:49;12.20;;;11.13;;
71091;SDS011;58751;50.708;7.134;2023-06-24T04:16:14;12.23;;;11.03;;
71091;SDS011;58751;50.708;7.134;2023-06-24T04:18:39;11.63;;;10.60;;
71091;SDS011;58751;50.708;7.134;2023-06-24T04:21:04;12.43;;;9.43;;
71091;SDS011;58751;50.708;7.134;2023-06-24T04:23:31;10.57;;;9.57;;
71091;SDS011;58751;50.708;7.134;2023-06-24T04:25:56;10.87;;;9.60;;
71091;SDS011;58751;50.708;7.134;2023-06-24T04:28:21;10.13;;;9.13;;
71091;SDS011;58751;50.708;7.134;2023-06-24T04:30:47;10.93;;;9.93;;
71091;SDS011;58751;50.708;7.134;2023-06-24T04:33:12;10.23;;;9.40;;
71091;SDS011;58751;50.708;7.134;2023-06-24T04:35:37;11.13;;;10.07;;
71091;SDS011;58751;50.708;7.134;2023-06-24T04:38:02;9.80;;;9.00;;
71091;SDS011;58751;50.708;7.134;2023-06-24T04:40:29;9.43;;;8.63;;
71091;SDS011;58751;50.708;7.134;2023-06-24T04:42:54;9.43;;;8.53;;
71091;SDS011;58751;50.708;7.134;2023-06-24T04:45:19;10.73;;;9.83;;
71091;SDS011;58751;50.708;7.134;2023-06-24T04:47:44;10.17;;;9.17;;
71091;SDS011;58751;50.708;7.134;2023-06-24T04:50:10;11.17;;;10.03;;
71091;SDS011;58751;50.708;7.134;2023-06-24T04:52:35;10.63;;;9.60;;
71091;SDS011;58751;50.708;7.134;2023-06-24T04:55:01;8.80;;;8.10;;
71091;SDS011;58751;50.708;7.134;2023-06-24T04:57:28;11.00;;;9.97;;
71091;SDS011;58751;50.708;7.134;2023-06-24T04:59:53;10.53;;;9.63;;
71091;SDS011;58751;50.708;7.134;2023-06-24T05:02:18;10.23;;;9.23;;
71091;SDS011;58751;50.708;7.134;2023-06-24T05:04:43;10.40;;;9.50;;
71091;SDS011;58751;50.708;7.134;2023-06-24T05:07:09;9.93;;;9.13;;
71091;SDS011;58751;50.708;7.134;2023-06-24T05:09:34;10.60;;;9.50;;
71091;SDS011;58751;50.708;7.134;2023-06-24T05:11:59;9.90;;;9.00;;
71091;SDS011;58751;50.708;7.134;2023-06-24T05:14:25;9.60;;;8.77;;
71091;SDS011;58751;50.708;7.134;2023-06-24T05:16:51;9.10;;;8.37;;
71091;SDS011;58751;50.708;7.134;2023-06-24T05:19:16;7.97;;;7.37;;
71091;SDS011;58751;50.708;7.134;2023-06-24T05:21:41;9.03;;;8.27;;
71091;SDS011;58751;50.708;7.134;2023-06-24T05:24:06;12.30;;;9.07;;
71091;SDS011;58751;50.708;7.134;2023-06-24T05:26:32;8.57;;;7.83;;
71091;SDS011;58751;50.708;7.134;2023-06-24T05:28:57;8.50;;;7.80;;
71091;SDS011;58751;50.708;7.134;2023-06-24T05:31:23;8.87;;;8.17;;
71091;SDS011;58751;50.708;7.134;2023-06-24T05:33:49;9.50;;;8.70;;
71091;SDS011;58751;50.708;7.134;2023-06-24T05:36:14;8.63;;;7.77;;
71091;SDS011;58751;50.708;7.134;2023-06-24T05:38:39;7.30;;;6.80;;
71091;SDS011;58751;50.708;7.134;2023-06-24T05:41:04;8.07;;;6.63;;
71091;SDS011;58751;50.708;7.134;2023-06-24T05:43:30;7.00;;;6.50;;
71091;SDS011;58751;50.708;7.134;2023-06-24T05:45:55;9.10;;;8.00;;
71091;SDS011;58751;50.708;7.134;2023-06-24T05:48:21;9.00;;;8.17;;
71091;SDS011;58751;50.708;7.134;2023-06-24T05:50:47;7.23;;;6.60;;
71091;SDS011;58751;50.708;7.134;2023-06-24T05:53:12;8.00;;;7.30;;
71091;SDS011;58751;50.708;7.134;2023-06-24T05:55:37;8.00;;;7.30;;
71091;SDS011;58751;50.708;7.134;2023-06-24T05:58:02;9.77;;;8.63;;
71091;SDS011;58751;50.708;7.134;2023-06-24T06:00:27;8.90;;;8.13;;
71091;SDS011;58751;50.708;7.134;2023-06-24T06:02:53;7.90;;;7.10;;
71091;SDS011;58751;50.708;7.134;2023-06-24T06:05:19;7.97;;;7.37;;
71091;SDS011;58751;50.708;7.134;2023-06-24T06:07:44;7.90;;;6.87;;
71091;SDS011;58751;50.708;7.134;2023-06-24T06:10:10;7.67;;;6.87;;
71091;SDS011;58751;50.708;7.134;2023-06-24T06:12:35;8.57;;;7.60;;
71091;SDS011;58751;50.708;7.134;2023-06-24T06:15:00;7.03;;;6.53;;
71091;SDS011;58751;50.708;7.134;2023-06-24T06:17:25;8.37;;;7.37;;
71091;SDS011;58751;50.708;7.134;2023-06-24T06:19:50;6.37;;;5.87;;
71091;SDS011;58751;50.708;7.134;2023-06-24T06:22:17;7.67;;;6.73;;
71091;SDS011;58751;50.708;7.134;2023-06-24T06:24:42;7.10;;;6.50;;
71091;SDS011;58751;50.708;7.134;2023-06-24T06:27:08;7.30;;;6.60;;
71091;SDS011;58751;50.708;7.134;2023-06-24T06:29:34;6.80;;;6.20;;
71091;SDS011;58751;50.708;7.134;2023-06-24T06:31:59;7.63;;;7.13;;
71091;SDS011;58751;50.708;7.134;2023-06-24T06:34:24;8.00;;;7.10;;
71091;SDS011;58751;50.708;7.134;2023-06-24T06:36:49;8.80;;;8.00;;
71091;SDS011;58751;50.708;7.134;2023-06-24T06:39:16;7.07;;;6.50;;
71091;SDS011;58751;50.708;7.134;2023-06-24T06:41:41;7.47;;;6.80;;
71091;SDS011;58751;50.708;7.134;2023-06-24T06:44:06;6.90;;;6.30;;
71091;SDS011;58751;50.708;7.134;2023-06-24T06:46:32;6.60;;;6.00;;
71091;SDS011;58751;50.708;7.134;2023-06-24T06:48:57;8.20;;;6.70;;
71091;SDS011;58751;50.708;7.134;2023-06-24T06:51:23;7.07;;;6.40;;
71091;SDS011;58751;50.708;7.134;2023-06-24T06:53:48;6.33;;;5.93;;
71091;SDS011;58751;50.708;7.134;2023-06-24T06:56:18;6.20;;;5.80;;
71091;SDS011;58751;50.708;7.134;2023-06-24T06:58:43;7.37;;;6.77;;
71091;SDS011;58751;50.708;7.134;2023-06-24T07:01:08;9.00;;;7.53;;
71091;SDS011;58751;50.708;7.134;2023-06-24T07:03:33;6.80;;;6.30;;
71091;SDS011;58751;50.708;7.134;2023-06-24T07:05:59;6.83;;;6.23;;
71091;SDS011;58751;50.708;7.134;2023-06-24T07:08:24;6.80;;;6.30;;
71091;SDS011;58751;50.708;7.134;2023-06-24T07:10:49;7.10;;;6.50;;
71091;SDS011;58751;50.708;7.134;2023-06-24T07:13:16;8.00;;;6.70;;
71091;SDS011;58751;50.708;7.134;2023-06-24T07:15:41;7.60;;;7.10;;
71091;SDS011;58751;50.708;7.134;2023-06-24T07:18:06;6.13;;;5.73;;
71091;SDS011;58751;50.708;7.134;2023-06-24T07:20:31;7.27;;;6.77;;
71091;SDS011;58751;50.708;7.134;2023-06-24T07:22:56;6.97;;;6.37;;
71091;SDS011;58751;50.708;7.134;2023-06-24T07:25:22;10.60;;;6.53;;
71091;SDS011;58751;50.708;7.134;2023-06-24T07:27:47;7.00;;;6.40;;
71091;SDS011;58751;50.708;7.134;2023-06-24T07:30:13;6.80;;;6.30;;
71091;SDS011;58751;50.708;7.134;2023-06-24T07:32:39;7.27;;;6.67;;
71091;SDS011;58751;50.708;7.134;2023-06-24T07:35:04;7.73;;;6.90;;
71091;SDS011;58751;50.708;7.134;2023-06-24T07:37:30;7.17;;;6.57;;
71091;SDS011;58751;50.708;7.134;2023-06-24T07:39:55;7.03;;;6.53;;
71091;SDS011;58751;50.708;7.134;2023-06-24T07:42:20;7.00;;;6.50;;
71091;SDS011;58751;50.708;7.134;2023-06-24T07:44:45;7.83;;;7.33;;
71091;SDS011;58751;50.708;7.134;2023-06-24T07:47:12;7.17;;;6.57;;
71091;SDS011;58751;50.708;7.134;2023-06-24T07:49:37;7.70;;;7.20;;
71091;SDS011;58751;50.708;7.134;2023-06-24T07:52:03;7.73;;;7.13;;
71091;SDS011;58751;50.708;7.134;2023-06-24T07:54:28;9.73;;;8.30;;
71091;SDS011;58751;50.708;7.134;2023-06-24T07:56:53;7.63;;;7.07;;
71091;SDS011;58751;50.708;7.134;2023-06-24T07:59:18;8.90;;;8.13;;
71091;SDS011;58751;50.708;7.134;2023-06-24T08:01:44;7.40;;;6.80;;
71091;SDS011;58751;50.708;7.134;2023-06-24T08:04:10;7.90;;;7.10;;
71091;SDS011;58751;50.708;7.134;2023-06-24T08:06:35;7.50;;;7.00;;
71091;SDS011;58751;50.708;7.134;2023-06-24T08:09:01;9.10;;;8.30;;
71091;SDS011;58751;50.708;7.134;2023-06-24T08:11:26;8.23;;;7.63;;
71091;SDS011;58751;50.708;7.134;2023-06-24T08:13:51;8.77;;;8.07;;
71091;SDS011;58751;50.708;7.134;2023-06-24T08:16:16;9.60;;;8.80;;
71091;SDS011;58751;50.708;7.134;2023-06-24T08:18:42;10.23;;;9.50;;
71091;SDS011;58751;50.708;7.134;2023-06-24T08:21:08;8.67;;;7.97;;
71091;SDS011;58751;50.708;7.134;2023-06-24T08:23:34;8.00;;;7.40;;
71091;SDS011;58751;50.708;7.134;2023-06-24T08:25:59;7.53;;;6.93;;
71091;SDS011;58751;50.708;7.134;2023-06-24T08:28:24;7.43;;;6.90;;
71091;SDS011;58751;50.708;7.134;2023-06-24T08:30:49;7.33;;;6.63;;
71091;SDS011;58751;50.708;7.134;2023-06-24T08:33:14;8.40;;;7.53;;
71091;SDS011;58751;50.708;7.134;2023-06-24T08:35:40;7.27;;;6.67;;
71091;SDS011;58751;50.708;7.134;2023-06-24T08:38:06;9.67;;;6.33;;
71091;SDS011;58751;50.708;7.134;2023-06-24T08:40:31;6.60;;;6.20;;
71091;SDS011;58751;50.708;7.134;2023-06-24T08:42:57;8.20;;;7.50;;
71091;SDS011;58751;50.708;7.134;2023-06-24T08:45:22;6.63;;;6.23;;
71091;SDS011;58751;50.708;7.134;2023-06-24T08:47:47;9.47;;;8.87;;
71091;SDS011;58751;50.708;7.134;2023-06-24T08:50:15;8.70;;;7.87;;
71091;SDS011;58751;50.708;7.134;2023-06-24T08:52:42;8.80;;;8.10;;
71091;SDS011;58751;50.708;7.134;2023-06-24T08:55:10;7.87;;;7.27;;
71091;SDS011;58751;50.708;7.134;2023-06-24T08:57:35;8.43;;;7.73;;
71091;SDS011;58751;50.708;7.134;2023-06-24T09:00:01;7.90;;;7.30;;
71091;SDS011;58751;50.708;7.134;2023-06-24T09:02:26;6.77;;;6.30;;
71091;SDS011;58751;50.708;7.134;2023-06-24T09:04:52;6.90;;;6.20;;
71091;SDS011;58751;50.708;7.134;2023-06-24T09:07:23;12.07;;;8.10;;
71091;SDS011;58751;50.708;7.134;2023-06-24T09:09:50;7.33;;;6.60;;
71091;SDS011;58751;50.708;7.134;2023-06-24T09:12:16;7.07;;;5.80;;
71091;SDS011;58751;50.708;7.134;2023-06-24T09:14:42;7.27;;;6.73;;
71091;SDS011;58751;50.708;7.134;2023-06-24T09:17:12;6.63;;;6.13;;
71091;SDS011;58751;50.708;7.134;2023-06-24T09:19:37;7.20;;;6.60;;
71091;SDS011;58751;50.708;7.134;2023-06-24T09:22:03;6.13;;;5.50;;
71091;SDS011;58751;50.708;7.134;2023-06-24T09:24:29;6.73;;;5.77;;
71091;SDS011;58751;50.708;7.134;2023-06-24T09:26:55;7.17;;;6.57;;
71091;SDS011;58751;50.708;7.134;2023-06-24T09:29:22;5.13;;;4.67;;
71091;SDS011;58751;50.708;7.134;2023-06-24T09:31:50;5.90;;;5.50;;
71091;SDS011;58751;50.708;7.134;2023-06-24T09:34:15;6.97;;;6.37;;
71091;SDS011;58751;50.708;7.134;2023-06-24T09:36:41;7.50;;;6.90;;
71091;SDS011;58751;50.708;7.134;2023-06-24T09:39:07;6.93;;;6.30;;
71091;SDS011;58751;50.708;7.134;2023-06-24T09:41:32;6.57;;;6.03;;
71091;SDS011;58751;50.708;7.134;2023-06-24T09:43:57;6.90;;;6.30;;
71091;SDS011;58751;50.708;7.134;2023-06-24T09:46:24;8.40;;;7.70;;
71091;SDS011;58751;50.708;7.134;2023-06-24T09:48:49;9.80;;;7.00;;
71091;SDS011;58751;50.708;7.134;2023-06-24T09:51:15;6.03;;;5.27;;
71091;SDS011;58751;50.708;7.134;2023-06-24T09:53:41;9.53;;;6.90;;
71091;SDS011;58751;50.708;7.134;2023-06-24T09:56:07;7.17;;;6.53;;
71091;SDS011;58751;50.708;7.134;2023-06-24T09:58:34;7.30;;;6.70;;
71091;SDS011;58751;50.708;7.134;2023-06-24T10:01:01;6.77;;;6.17;;
71091;SDS011;58751;50.708;7.134;2023-06-24T10:03:28;6.37;;;5.70;;
71091;SDS011;58751;50.708;7.134;2023-06-24T10:05:53;6.67;;;6.10;;
71091;SDS011;58751;50.708;7.134;2023-06-24T10:08:18;7.20;;;6.70;;
71091;SDS011;58751;50.708;7.134;2023-06-24T10:10:44;6.27;;;5.77;;
71091;SDS011;58751;50.708;7.134;2023-06-24T10:13:09;7.03;;;6.40;;
71091;SDS011;58751;50.708;7.134;2023-06-24T10:15:34;6.17;;;5.57;;
71091;SDS011;58751;50.708;7.134;2023-06-24T10:18:01;7.03;;;6.07;;
71091;SDS011;58751;50.708;7.134;2023-06-24T10:20:27;5.97;;;5.60;;
71091;SDS011;58751;50.708;7.134;2023-06-24T10:22:53;8.50;;;6.27;;
71091;SDS011;58751;50.708;7.134;2023-06-24T10:25:18;7.63;;;6.93;;
71091;SDS011;58751;50.708;7.134;2023-06-24T10:27:43;6.47;;;5.97;;
71091;SDS011;58751;50.708;7.134;2023-06-24T10:30:09;7.53;;;6.80;;
71091;SDS011;58751;50.708;7.134;2023-06-24T10:32:41;6.40;;;5.90;;
71091;SDS011;58751;50.708;7.134;2023-06-24T10:35:07;6.27;;;5.67;;
71091;SDS011;58751;50.708;7.134;2023-06-24T10:37:33;6.90;;;6.40;;
71091;SDS011;58751;50.708;7.134;2023-06-24T10:39:58;8.23;;;7.53;;
71091;SDS011;58751;50.708;7.134;2023-06-24T10:45:17;6.37;;;5.83;;
71091;SDS011;58751;50.708;7.134;2023-06-24T10:47:43;6.40;;;5.80;;
71091;SDS011;58751;50.708;7.134;2023-06-24T10:50:09;6.60;;;6.00;;
71091;SDS011;58751;50.708;7.134;2023-06-24T10:52:38;7.47;;;6.87;;
71091;SDS011;58751;50.708;7.134;2023-06-24T10:55:04;6.77;;;6.17;;
71091;SDS011;58751;50.708;7.134;2023-06-24T10:57:29;5.83;;;5.33;;
71091;SDS011;58751;50.708;7.134;2023-06-24T10:59:56;6.50;;;5.90;;
71091;SDS011;58751;50.708;7.134;2023-06-24T11:02:23;5.70;;;5.20;;
71091;SDS011;58751;50.708;7.134;2023-06-24T11:04:48;5.87;;;5.47;;
71091;SDS011;58751;50.708;7.134;2023-06-24T11:07:14;5.73;;;5.33;;
71091;SDS011;58751;50.708;7.134;2023-06-24T11:09:41;7.23;;;6.00;;
71091;SDS011;58751;50.708;7.134;2023-06-24T11:12:08;5.23;;;4.83;;
71091;SDS011;58751;50.708;7.134;2023-06-24T11:14:33;6.70;;;5.60;;
71091;SDS011;58751;50.708;7.134;2023-06-24T11:17:00;5.73;;;5.00;;
71091;SDS011;58751;50.708;7.134;2023-06-24T11:19:25;6.30;;;5.90;;
71091;SDS011;58751;50.708;7.134;2023-06-24T11:21:50;6.30;;;5.77;;
71091;SDS011;58751;50.708;7.134;2023-06-24T11:24:15;6.83;;;6.10;;
71091;SDS011;58751;50.708;7.134;2023-06-24T11:26:42;5.50;;;5.00;;
71091;SDS011;58751;50.708;7.134;2023-06-24T11:29:09;6.17;;;5.63;;
71091;SDS011;58751;50.708;7.134;2023-06-24T11:31:34;7.03;;;6.07;;
71091;SDS011;58751;50.708;7.134;2023-06-24T11:33:59;5.63;;;5.23;;
71091;SDS011;58751;50.708;7.134;2023-06-24T11:36:24;5.13;;;4.73;;
71091;SDS011;58751;50.708;7.134;2023-06-24T11:38:50;6.33;;;5.73;;
71091;SDS011;58751;50.708;7.134;2023-06-24T11:41:15;4.93;;;4.63;;
71091;SDS011;58751;50.708;7.134;2023-06-24T11:43:44;6.10;;;5.60;;
71091;SDS011;58751;50.708;7.134;2023-06-24T11:46:10;7.10;;;5.60;;
71091;SDS011;58751;50.708;7.134;2023-06-24T11:48:38;6.57;;;6.07;;
71091;SDS011;58751;50.708;7.134;2023-06-24T11:51:03;5.47;;;5.07;;
71091;SDS011;58751;50.708;7.134;2023-06-24T11:53:29;6.03;;;5.53;;
71091;SDS011;58751;50.708;7.134;2023-06-24T11:55:55;6.43;;;5.93;;
71091;SDS011;58751;50.708;7.134;2023-06-24T11:58:20;6.30;;;5.87;;
71091;SDS011;58751;50.708;7.134;2023-06-24T12:00:48;10.43;;;6.80;;
71091;SDS011;58751;50.708;7.134;2023-06-24T12:03:13;5.70;;;5.30;;
71091;SDS011;58751;50.708;7.134;2023-06-24T12:05:38;5.00;;;4.60;;
71091;SDS011;58751;50.708;7.134;2023-06-24T12:08:04;5.97;;;5.37;;
71091;SDS011;58751;50.708;7.134;2023-06-24T12:10:30;5.73;;;5.33;;
71091;SDS011;58751;50.708;7.134;2023-06-24T12:12:56;7.27;;;6.60;;
71091;SDS011;58751;50.708;7.134;2023-06-24T12:15:21;6.20;;;5.40;;
71091;SDS011;58751;50.708;7.134;2023-06-24T12:17:48;5.70;;;5.27;;
71091;SDS011;58751;50.708;7.134;2023-06-24T12:20:13;5.90;;;5.40;;
71091;SDS011;58751;50.708;7.134;2023-06-24T12:22:39;6.13;;;5.30;;
71091;SDS011;58751;50.708;7.134;2023-06-24T12:25:04;6.10;;;5.57;;
71091;SDS011;58751;50.708;7.134;2023-06-24T12:27:29;5.30;;;4.90;;
71091;SDS011;58751;50.708;7.134;2023-06-24T12:29:55;5.73;;;5.23;;
71091;SDS011;58751;50.708;7.134;2023-06-24T12:32:20;4.93;;;4.53;;
71091;SDS011;58751;50.708;7.134;2023-06-24T12:34:47;5.27;;;4.87;;
71091;SDS011;58751;50.708;7.134;2023-06-24T12:37:12;6.50;;;5.97;;
71091;SDS011;58751;50.708;7.134;2023-06-24T12:39:37;5.33;;;4.83;;
71091;SDS011;58751;50.708;7.134;2023-06-24T12:42:03;5.03;;;4.63;;
71091;SDS011;58751;50.708;7.134;2023-06-24T12:44:28;6.00;;;5.27;;
71091;SDS011;58751;50.708;7.134;2023-06-24T12:46:53;6.17;;;5.70;;
71091;SDS011;58751;50.708;7.134;2023-06-24T12:49:18;5.63;;;5.23;;
71091;SDS011;58751;50.708;7.134;2023-06-24T12:51:45;6.97;;;5.50;;
71091;SDS011;58751;50.708;7.134;2023-06-24T12:54:10;5.33;;;4.83;;
71091;SDS011;58751;50.708;7.134;2023-06-24T12:56:36;5.53;;;4.33;;
71091;SDS011;58751;50.708;7.134;2023-06-24T12:59:01;5.20;;;4.90;;
71091;SDS011;58751;50.708;7.134;2023-06-24T13:01:26;5.87;;;5.37;;
71091;SDS011;58751;50.708;7.134;2023-06-24T13:03:51;5.57;;;5.27;;
71091;SDS011;58751;50.708;7.134;2023-06-24T13:06:16;5.97;;;5.47;;
71091;SDS011;58751;50.708;7.134;2023-06-24T13:08:43;5.03;;;4.60;;
71091;SDS011;58751;50.708;7.134;2023-06-24T13:11:08;5.40;;;5.00;;
71091;SDS011;58751;50.708;7.134;2023-06-24T13:13:33;5.70;;;5.20;;
71091;SDS011;58751;50.708;7.134;2023-06-24T13:15:59;5.70;;;5.20;;
71091;SDS011;58751;50.708;7.134;2023-06-24T13:18:24;6.57;;;5.37;;
71091;SDS011;58751;50.708;7.134;2023-06-24T13:20:49;5.50;;;5.10;;
71091;SDS011;58751;50.708;7.134;2023-06-24T13:23:14;5.80;;;5.40;;
71091;SDS011;58751;50.708;7.134;2023-06-24T13:25:41;5.17;;;4.87;;
71091;SDS011;58751;50.708;7.134;2023-06-24T13:28:06;6.17;;;5.67;;
71091;SDS011;58751;50.708;7.134;2023-06-24T13:30:31;5.63;;;5.03;;
71091;SDS011;58751;50.708;7.134;2023-06-24T13:32:56;7.00;;;6.10;;
71091;SDS011;58751;50.708;7.134;2023-06-24T13:35:22;6.53;;;5.77;;
71091;SDS011;58751;50.708;7.134;2023-06-24T13:37:47;5.00;;;4.57;;
71091;SDS011;58751;50.708;7.134;2023-06-24T13:40:12;6.17;;;5.67;;
71091;SDS011;58751;50.708;7.134;2023-06-24T13:42:39;5.50;;;5.10;;
71091;SDS011;58751;50.708;7.134;2023-06-24T13:45:04;5.80;;;5.40;;
71091;SDS011;58751;50.708;7.134;2023-06-24T13:47:29;5.67;;;5.27;;
71091;SDS011;58751;50.708;7.134;2023-06-24T13:49:55;5.40;;;5.00;;
71091;SDS011;58751;50.708;7.134;2023-06-24T13:52:20;5.73;;;5.33;;
71091;SDS011;58751;50.708;7.134;2023-06-24T13:54:45;5.43;;;5.03;;
71091;SDS011;58751;50.708;7.134;2023-06-24T13:57:10;6.47;;;5.97;;
71091;SDS011;58751;50.708;7.134;2023-06-24T13:59:37;5.70;;;5.30;;
71091;SDS011;58751;50.708;7.134;2023-06-24T14:02:02;4.93;;;4.63;;
71091;SDS011;58751;50.708;7.134;2023-06-24T14:04:27;6.90;;;4.93;;
71091;SDS011;58751;50.708;7.134;2023-06-24T14:06:53;5.40;;;5.00;;
71091;SDS011;58751;50.708;7.134;2023-06-24T14:09:18;5.27;;;4.87;;
71091;SDS011;58751;50.708;7.134;2023-06-24T14:11:43;4.67;;;4.30;;
71091;SDS011;58751;50.708;7.134;2023-06-24T14:14:08;5.43;;;4.93;;
71091;SDS011;58751;50.708;7.134;2023-06-24T14:16:35;7.70;;;5.93;;
71091;SDS011;58751;50.708;7.134;2023-06-24T14:19:00;4.80;;;4.50;;
71091;SDS011;58751;50.708;7.134;2023-06-24T14:21:25;6.53;;;5.20;;
71091;SDS011;58751;50.708;7.134;2023-06-24T14:23:51;6.27;;;5.77;;
71091;SDS011;58751;50.708;7.134;2023-06-24T14:26:16;5.80;;;5.40;;
71091;SDS011;58751;50.708;7.134;2023-06-24T14:28:41;7.30;;;5.40;;
71091;SDS011;58751;50.708;7.134;2023-06-24T14:31:06;6.00;;;5.50;;
71091;SDS011;58751;50.708;7.134;2023-06-24T14:33:33;5.83;;;5.43;;
71091;SDS011;58751;50.708;7.134;2023-06-24T14:35:58;9.90;;;4.83;;
71091;SDS011;58751;50.708;7.134;2023-06-24T14:38:23;5.67;;;5.27;;
71091;SDS011;58751;50.708;7.134;2023-06-24T14:40:48;5.60;;;5.10;;